sensor_id;sensor_type;location;lat;lon;timestamp;P1;durP1;ratioP1;P2;durP2;ratioP2
64795;SDS011;51229;51.980;6.722;2022-08-26T00:01:31;44.17;;;39.70;;
64795;SDS011;51229;51.980;6.722;2022-08-26T00:03:57;43.00;;;38.55;;
64795;SDS011;51229;51.980;6.722;2022-08-26T00:06:23;46.70;;;41.80;;
64795;SDS011;51229;51.980;6.722;2022-08-26T00:08:49;46.42;;;41.72;;
64795;SDS011;51229;51.980;6.722;2022-08-26T00:11:15;44.00;;;39.50;;
64795;SDS011;51229;51.980;6.722;2022-08-26T00:13:41;47.10;;;42.22;;
64795;SDS011;51229;51.980;6.722;2022-08-26T00:16:07;43.15;;;38.85;;
64795;SDS011;51229;51.980;6.722;2022-08-26T00:18:33;47.35;;;42.55;;
64795;SDS011;51229;51.980;6.722;2022-08-26T00:20:59;47.22;;;42.45;;
64795;SDS011;51229;51.980;6.722;2022-08-26T00:23:25;42.78;;;38.33;;
64795;SDS011;51229;51.980;6.722;2022-08-26T00:25:51;47.35;;;42.35;;
64795;SDS011;51229;51.980;6.722;2022-08-26T00:28:17;46.00;;;41.20;;
64795;SDS011;51229;51.980;6.722;2022-08-26T00:30:44;44.70;;;40.20;;
64795;SDS011;51229;51.980;6.722;2022-08-26T00:33:12;48.53;;;43.42;;
64795;SDS011;51229;51.980;6.722;2022-08-26T00:35:38;48.78;;;43.90;;
64795;SDS011;51229;51.980;6.722;2022-08-26T00:38:04;48.15;;;43.35;;
64795;SDS011;51229;51.980;6.722;2022-08-26T00:40:32;45.28;;;40.35;;
64795;SDS011;51229;51.980;6.722;2022-08-26T00:43:03;46.58;;;41.78;;
64795;SDS011;51229;51.980;6.722;2022-08-26T00:45:31;48.60;;;43.60;;
64795;SDS011;51229;51.980;6.722;2022-08-26T00:48:02;47.22;;;42.42;;
64795;SDS011;51229;51.980;6.722;2022-08-26T00:50:31;47.60;;;42.80;;
64795;SDS011;51229;51.980;6.722;2022-08-26T00:53:01;44.50;;;40.03;;
64795;SDS011;51229;51.980;6.722;2022-08-26T00:55:45;42.85;;;38.50;;
64795;SDS011;51229;51.980;6.722;2022-08-26T00:58:16;45.05;;;40.58;;
64795;SDS011;51229;51.980;6.722;2022-08-26T01:00:42;43.28;;;38.97;;
64795;SDS011;51229;51.980;6.722;2022-08-26T01:03:08;43.25;;;38.65;;
64795;SDS011;51229;51.980;6.722;2022-08-26T01:05:37;43.20;;;38.67;;
64795;SDS011;51229;51.980;6.722;2022-08-26T01:08:03;44.85;;;39.67;;
64795;SDS011;51229;51.980;6.722;2022-08-26T01:10:29;43.22;;;38.67;;
64795;SDS011;51229;51.980;6.722;2022-08-26T01:12:59;43.03;;;38.40;;
64795;SDS011;51229;51.980;6.722;2022-08-26T01:15:33;40.10;;;36.10;;
64795;SDS011;51229;51.980;6.722;2022-08-26T01:18:04;37.65;;;33.70;;
64795;SDS011;51229;51.980;6.722;2022-08-26T01:20:36;44.40;;;39.70;;
64795;SDS011;51229;51.980;6.722;2022-08-26T01:23:17;42.33;;;37.78;;
64795;SDS011;51229;51.980;6.722;2022-08-26T01:25:48;42.25;;;37.83;;
64795;SDS011;51229;51.980;6.722;2022-08-26T01:28:20;42.42;;;38.08;;
64795;SDS011;51229;51.980;6.722;2022-08-26T01:30:49;43.50;;;39.20;;
64795;SDS011;51229;51.980;6.722;2022-08-26T01:33:19;45.20;;;39.00;;
64795;SDS011;51229;51.980;6.722;2022-08-26T01:35:48;36.53;;;32.92;;
64795;SDS011;51229;51.980;6.722;2022-08-26T01:38:14;40.88;;;36.63;;
64795;SDS011;51229;51.980;6.722;2022-08-26T01:40:41;43.45;;;38.85;;
64795;SDS011;51229;51.980;6.722;2022-08-26T01:43:08;41.97;;;37.42;;
64795;SDS011;51229;51.980;6.722;2022-08-26T01:45:39;42.40;;;37.95;;
64795;SDS011;51229;51.980;6.722;2022-08-26T01:48:06;41.92;;;37.65;;
64795;SDS011;51229;51.980;6.722;2022-08-26T01:50:35;40.13;;;35.92;;
64795;SDS011;51229;51.980;6.722;2022-08-26T01:53:04;41.30;;;36.90;;
64795;SDS011;51229;51.980;6.722;2022-08-26T01:55:33;42.08;;;37.75;;
64795;SDS011;51229;51.980;6.722;2022-08-26T01:58:05;39.03;;;34.97;;
64795;SDS011;51229;51.980;6.722;2022-08-26T02:00:35;38.30;;;34.30;;
64795;SDS011;51229;51.980;6.722;2022-08-26T02:03:04;35.30;;;31.13;;
64795;SDS011;51229;51.980;6.722;2022-08-26T02:05:47;38.38;;;34.45;;
64795;SDS011;51229;51.980;6.722;2022-08-26T02:08:13;40.60;;;36.13;;
64795;SDS011;51229;51.980;6.722;2022-08-26T02:10:41;36.15;;;32.53;;
64795;SDS011;51229;51.980;6.722;2022-08-26T02:13:08;37.53;;;33.53;;
64795;SDS011;51229;51.980;6.722;2022-08-26T02:15:35;38.00;;;33.90;;
64795;SDS011;51229;51.980;6.722;2022-08-26T02:18:02;36.67;;;32.85;;
64795;SDS011;51229;51.980;6.722;2022-08-26T02:20:29;35.67;;;31.85;;
64795;SDS011;51229;51.980;6.722;2022-08-26T02:22:55;31.38;;;28.10;;
64795;SDS011;51229;51.980;6.722;2022-08-26T02:25:26;36.80;;;32.92;;
64795;SDS011;51229;51.980;6.722;2022-08-26T02:28:08;36.65;;;32.03;;
64795;SDS011;51229;51.980;6.722;2022-08-26T02:30:35;35.67;;;31.65;;
64795;SDS011;51229;51.980;6.722;2022-08-26T02:33:03;34.35;;;30.65;;
64795;SDS011;51229;51.980;6.722;2022-08-26T02:35:29;31.42;;;28.13;;
64795;SDS011;51229;51.980;6.722;2022-08-26T02:37:56;35.72;;;31.92;;
64795;SDS011;51229;51.980;6.722;2022-08-26T02:40:25;33.20;;;27.13;;
64795;SDS011;51229;51.980;6.722;2022-08-26T02:42:54;33.90;;;30.20;;
64795;SDS011;51229;51.980;6.722;2022-08-26T02:45:21;34.63;;;30.38;;
64795;SDS011;51229;51.980;6.722;2022-08-26T02:47:47;37.63;;;31.52;;
64795;SDS011;51229;51.980;6.722;2022-08-26T02:50:15;30.67;;;26.80;;
64795;SDS011;51229;51.980;6.722;2022-08-26T02:52:40;33.75;;;28.52;;
64795;SDS011;51229;51.980;6.722;2022-08-26T02:55:06;33.05;;;29.20;;
64795;SDS011;51229;51.980;6.722;2022-08-26T02:57:32;34.35;;;28.65;;
64795;SDS011;51229;51.980;6.722;2022-08-26T02:59:58;32.72;;;28.15;;
64795;SDS011;51229;51.980;6.722;2022-08-26T03:02:25;32.85;;;29.38;;
64795;SDS011;51229;51.980;6.722;2022-08-26T03:04:52;33.13;;;28.75;;
64795;SDS011;51229;51.980;6.722;2022-08-26T03:07:18;33.25;;;28.05;;
64795;SDS011;51229;51.980;6.722;2022-08-26T03:09:44;33.72;;;28.60;;
64795;SDS011;51229;51.980;6.722;2022-08-26T03:12:10;31.55;;;27.55;;
64795;SDS011;51229;51.980;6.722;2022-08-26T03:14:36;29.27;;;25.65;;
64795;SDS011;51229;51.980;6.722;2022-08-26T03:17:01;30.58;;;27.13;;
64795;SDS011;51229;51.980;6.722;2022-08-26T03:19:28;34.58;;;26.35;;
64795;SDS011;51229;51.980;6.722;2022-08-26T03:21:56;30.35;;;25.90;;
64795;SDS011;51229;51.980;6.722;2022-08-26T03:24:22;30.98;;;26.63;;
64795;SDS011;51229;51.980;6.722;2022-08-26T03:26:47;32.25;;;26.88;;
64795;SDS011;51229;51.980;6.722;2022-08-26T03:29:13;32.75;;;25.85;;
64795;SDS011;51229;51.980;6.722;2022-08-26T03:31:57;26.77;;;23.50;;
64795;SDS011;51229;51.980;6.722;2022-08-26T03:34:24;31.50;;;26.77;;
64795;SDS011;51229;51.980;6.722;2022-08-26T03:36:49;29.67;;;24.77;;
64795;SDS011;51229;51.980;6.722;2022-08-26T03:39:15;25.60;;;22.88;;
64795;SDS011;51229;51.980;6.722;2022-08-26T03:41:41;28.13;;;22.63;;
64795;SDS011;51229;51.980;6.722;2022-08-26T03:44:09;26.80;;;23.13;;
64795;SDS011;51229;51.980;6.722;2022-08-26T03:46:35;27.27;;;22.00;;
64795;SDS011;51229;51.980;6.722;2022-08-26T03:49:02;30.52;;;22.50;;
64795;SDS011;51229;51.980;6.722;2022-08-26T03:51:29;25.98;;;21.85;;
64795;SDS011;51229;51.980;6.722;2022-08-26T03:53:56;28.00;;;22.75;;
64795;SDS011;51229;51.980;6.722;2022-08-26T03:56:23;24.00;;;21.10;;
64795;SDS011;51229;51.980;6.722;2022-08-26T03:58:49;26.15;;;22.13;;
64795;SDS011;51229;51.980;6.722;2022-08-26T04:01:14;26.27;;;21.98;;
64795;SDS011;51229;51.980;6.722;2022-08-26T04:03:40;21.65;;;18.05;;
64795;SDS011;51229;51.980;6.722;2022-08-26T04:06:25;19.58;;;17.42;;
64795;SDS011;51229;51.980;6.722;2022-08-26T04:09:06;23.92;;;19.77;;
64795;SDS011;51229;51.980;6.722;2022-08-26T04:11:34;28.13;;;21.73;;
64795;SDS011;51229;51.980;6.722;2022-08-26T04:14:02;23.10;;;18.88;;
64795;SDS011;51229;51.980;6.722;2022-08-26T04:16:29;23.02;;;19.02;;
64795;SDS011;51229;51.980;6.722;2022-08-26T04:18:57;25.85;;;19.75;;
64795;SDS011;51229;51.980;6.722;2022-08-26T04:21:23;23.00;;;18.67;;
64795;SDS011;51229;51.980;6.722;2022-08-26T04:23:49;24.52;;;19.63;;
64795;SDS011;51229;51.980;6.722;2022-08-26T04:26:16;21.67;;;19.33;;
64795;SDS011;51229;51.980;6.722;2022-08-26T04:28:44;26.65;;;19.20;;
64795;SDS011;51229;51.980;6.722;2022-08-26T04:31:11;21.13;;;18.88;;
64795;SDS011;51229;51.980;6.722;2022-08-26T04:33:39;22.65;;;18.52;;
64795;SDS011;51229;51.980;6.722;2022-08-26T04:36:05;22.10;;;18.52;;
64795;SDS011;51229;51.980;6.722;2022-08-26T04:38:32;21.75;;;17.60;;
64795;SDS011;51229;51.980;6.722;2022-08-26T04:40:58;22.08;;;18.17;;
64795;SDS011;51229;51.980;6.722;2022-08-26T04:43:24;22.00;;;18.48;;
64795;SDS011;51229;51.980;6.722;2022-08-26T04:45:53;16.23;;;14.38;;
64795;SDS011;51229;51.980;6.722;2022-08-26T04:48:19;19.50;;;16.55;;
64795;SDS011;51229;51.980;6.722;2022-08-26T04:50:45;24.13;;;18.23;;
64795;SDS011;51229;51.980;6.722;2022-08-26T04:53:10;20.33;;;17.30;;
64795;SDS011;51229;51.980;6.722;2022-08-26T04:55:36;24.98;;;17.73;;
64795;SDS011;51229;51.980;6.722;2022-08-26T04:58:03;21.63;;;17.20;;
64795;SDS011;51229;51.980;6.722;2022-08-26T05:00:29;24.08;;;17.63;;
64795;SDS011;51229;51.980;6.722;2022-08-26T05:02:55;22.08;;;18.20;;
64795;SDS011;51229;51.980;6.722;2022-08-26T05:05:20;19.85;;;16.35;;
64795;SDS011;51229;51.980;6.722;2022-08-26T05:07:46;20.27;;;18.00;;
64795;SDS011;51229;51.980;6.722;2022-08-26T05:10:11;23.13;;;17.65;;
64795;SDS011;51229;51.980;6.722;2022-08-26T05:12:37;24.25;;;18.05;;
64795;SDS011;51229;51.980;6.722;2022-08-26T05:15:03;19.77;;;17.33;;
64795;SDS011;51229;51.980;6.722;2022-08-26T05:17:29;21.25;;;17.33;;
64795;SDS011;51229;51.980;6.722;2022-08-26T05:19:55;20.98;;;16.80;;
64795;SDS011;51229;51.980;6.722;2022-08-26T05:22:21;22.10;;;16.55;;
64795;SDS011;51229;51.980;6.722;2022-08-26T05:24:46;23.08;;;16.27;;
64795;SDS011;51229;51.980;6.722;2022-08-26T05:27:12;21.17;;;16.70;;
64795;SDS011;51229;51.980;6.722;2022-08-26T05:29:39;21.40;;;16.60;;
64795;SDS011;51229;51.980;6.722;2022-08-26T05:32:05;19.20;;;16.60;;
64795;SDS011;51229;51.980;6.722;2022-08-26T05:34:31;18.75;;;16.77;;
64795;SDS011;51229;51.980;6.722;2022-08-26T05:36:57;20.55;;;14.55;;
64795;SDS011;51229;51.980;6.722;2022-08-26T05:39:22;18.45;;;15.57;;
64795;SDS011;51229;51.980;6.722;2022-08-26T05:41:48;18.70;;;16.73;;
64795;SDS011;51229;51.980;6.722;2022-08-26T05:44:15;19.88;;;16.52;;
64795;SDS011;51229;51.980;6.722;2022-08-26T05:46:43;20.15;;;15.80;;
64795;SDS011;51229;51.980;6.722;2022-08-26T05:49:10;17.17;;;13.38;;
64795;SDS011;51229;51.980;6.722;2022-08-26T05:51:38;18.13;;;15.25;;
64795;SDS011;51229;51.980;6.722;2022-08-26T05:54:04;16.20;;;13.93;;
64795;SDS011;51229;51.980;6.722;2022-08-26T05:56:33;18.23;;;14.82;;
64795;SDS011;51229;51.980;6.722;2022-08-26T05:58:59;17.50;;;14.95;;
64795;SDS011;51229;51.980;6.722;2022-08-26T06:01:26;15.57;;;12.93;;
64795;SDS011;51229;51.980;6.722;2022-08-26T06:03:54;17.45;;;14.52;;
64795;SDS011;51229;51.980;6.722;2022-08-26T06:06:25;21.15;;;14.55;;
64795;SDS011;51229;51.980;6.722;2022-08-26T06:08:54;17.58;;;14.63;;
64795;SDS011;51229;51.980;6.722;2022-08-26T06:11:21;16.23;;;14.35;;
64795;SDS011;51229;51.980;6.722;2022-08-26T06:13:51;18.77;;;14.80;;
64795;SDS011;51229;51.980;6.722;2022-08-26T06:16:19;15.68;;;12.65;;
64795;SDS011;51229;51.980;6.722;2022-08-26T06:18:47;16.45;;;13.32;;
64795;SDS011;51229;51.980;6.722;2022-08-26T06:21:31;18.40;;;13.63;;
64795;SDS011;51229;51.980;6.722;2022-08-26T06:24:00;16.98;;;13.85;;
64795;SDS011;51229;51.980;6.722;2022-08-26T06:26:47;17.13;;;12.95;;
64795;SDS011;51229;51.980;6.722;2022-08-26T06:29:15;14.77;;;11.75;;
64795;SDS011;51229;51.980;6.722;2022-08-26T06:31:41;19.75;;;12.55;;
64795;SDS011;51229;51.980;6.722;2022-08-26T06:34:07;16.83;;;12.98;;
64795;SDS011;51229;51.980;6.722;2022-08-26T06:36:33;18.38;;;12.20;;
64795;SDS011;51229;51.980;6.722;2022-08-26T06:39:07;15.10;;;11.65;;
64795;SDS011;51229;51.980;6.722;2022-08-26T06:41:34;18.02;;;12.27;;
64795;SDS011;51229;51.980;6.722;2022-08-26T06:44:00;16.30;;;12.13;;
64795;SDS011;51229;51.980;6.722;2022-08-26T06:46:27;15.85;;;12.18;;
64795;SDS011;51229;51.980;6.722;2022-08-26T06:48:53;15.70;;;11.52;;
64795;SDS011;51229;51.980;6.722;2022-08-26T06:51:23;15.10;;;12.20;;
64795;SDS011;51229;51.980;6.722;2022-08-26T06:53:51;14.90;;;11.35;;
64795;SDS011;51229;51.980;6.722;2022-08-26T06:56:19;15.20;;;10.93;;
64795;SDS011;51229;51.980;6.722;2022-08-26T06:58:47;15.20;;;11.73;;
64795;SDS011;51229;51.980;6.722;2022-08-26T07:01:21;17.73;;;11.48;;
64795;SDS011;51229;51.980;6.722;2022-08-26T07:03:49;14.82;;;11.35;;
64795;SDS011;51229;51.980;6.722;2022-08-26T07:06:16;17.00;;;11.88;;
64795;SDS011;51229;51.980;6.722;2022-08-26T07:08:45;18.10;;;10.63;;
64795;SDS011;51229;51.980;6.722;2022-08-26T07:11:11;14.57;;;9.98;;
64795;SDS011;51229;51.980;6.722;2022-08-26T07:13:37;12.55;;;10.02;;
64795;SDS011;51229;51.980;6.722;2022-08-26T07:16:06;15.30;;;9.50;;
64795;SDS011;51229;51.980;6.722;2022-08-26T07:18:34;13.18;;;8.73;;
64795;SDS011;51229;51.980;6.722;2022-08-26T07:21:04;14.15;;;9.52;;
64795;SDS011;51229;51.980;6.722;2022-08-26T07:23:32;13.40;;;8.30;;
64795;SDS011;51229;51.980;6.722;2022-08-26T07:25:58;12.23;;;8.43;;
64795;SDS011;51229;51.980;6.722;2022-08-26T07:28:28;15.00;;;9.13;;
64795;SDS011;51229;51.980;6.722;2022-08-26T07:30:54;14.55;;;8.68;;
64795;SDS011;51229;51.980;6.722;2022-08-26T07:33:19;13.63;;;8.90;;
64795;SDS011;51229;51.980;6.722;2022-08-26T07:35:45;12.45;;;8.40;;
64795;SDS011;51229;51.980;6.722;2022-08-26T07:38:11;12.40;;;7.97;;
64795;SDS011;51229;51.980;6.722;2022-08-26T07:40:37;12.10;;;7.90;;
64795;SDS011;51229;51.980;6.722;2022-08-26T07:43:04;12.30;;;7.53;;
64795;SDS011;51229;51.980;6.722;2022-08-26T07:45:30;10.05;;;7.65;;
64795;SDS011;51229;51.980;6.722;2022-08-26T07:47:56;15.13;;;7.22;;
64795;SDS011;51229;51.980;6.722;2022-08-26T07:50:22;13.90;;;7.75;;
64795;SDS011;51229;51.980;6.722;2022-08-26T07:52:48;22.15;;;7.85;;
64795;SDS011;51229;51.980;6.722;2022-08-26T07:55:14;11.40;;;6.95;;
64795;SDS011;51229;51.980;6.722;2022-08-26T07:57:40;12.18;;;7.70;;
64795;SDS011;51229;51.980;6.722;2022-08-26T08:00:07;11.88;;;7.32;;
64795;SDS011;51229;51.980;6.722;2022-08-26T08:02:37;12.60;;;7.30;;
64795;SDS011;51229;51.980;6.722;2022-08-26T08:05:03;12.68;;;6.60;;
64795;SDS011;51229;51.980;6.722;2022-08-26T08:07:29;13.02;;;6.30;;
64795;SDS011;51229;51.980;6.722;2022-08-26T08:09:54;10.23;;;5.90;;
64795;SDS011;51229;51.980;6.722;2022-08-26T08:12:20;11.23;;;5.78;;
64795;SDS011;51229;51.980;6.722;2022-08-26T08:14:46;12.93;;;5.80;;
64795;SDS011;51229;51.980;6.722;2022-08-26T08:17:13;13.10;;;5.25;;
64795;SDS011;51229;51.980;6.722;2022-08-26T08:19:39;7.10;;;4.75;;
64795;SDS011;51229;51.980;6.722;2022-08-26T08:22:06;7.85;;;4.45;;
64795;SDS011;51229;51.980;6.722;2022-08-26T08:24:32;10.23;;;5.43;;
64795;SDS011;51229;51.980;6.722;2022-08-26T08:26:59;9.98;;;5.22;;
64795;SDS011;51229;51.980;6.722;2022-08-26T08:29:26;12.73;;;4.95;;
64795;SDS011;51229;51.980;6.722;2022-08-26T08:31:53;9.85;;;4.82;;
64795;SDS011;51229;51.980;6.722;2022-08-26T08:34:20;12.13;;;4.95;;
64795;SDS011;51229;51.980;6.722;2022-08-26T08:36:45;12.20;;;5.07;;
64795;SDS011;51229;51.980;6.722;2022-08-26T08:39:11;8.95;;;4.47;;
64795;SDS011;51229;51.980;6.722;2022-08-26T08:44:19;9.73;;;4.95;;
64795;SDS011;51229;51.980;6.722;2022-08-26T08:46:48;9.52;;;5.38;;
64795;SDS011;51229;51.980;6.722;2022-08-26T08:49:17;12.05;;;5.65;;
64795;SDS011;51229;51.980;6.722;2022-08-26T08:51:49;10.63;;;5.32;;
64795;SDS011;51229;51.980;6.722;2022-08-26T08:54:18;10.93;;;4.45;;
64795;SDS011;51229;51.980;6.722;2022-08-26T08:59:19;12.77;;;4.50;;
64795;SDS011;51229;51.980;6.722;2022-08-26T09:01:54;13.40;;;4.50;;
64795;SDS011;51229;51.980;6.722;2022-08-26T09:07:30;9.27;;;4.43;;
64795;SDS011;51229;51.980;6.722;2022-08-26T09:10:21;10.73;;;5.20;;
64795;SDS011;51229;51.980;6.722;2022-08-26T09:15:30;12.95;;;5.00;;
64795;SDS011;51229;51.980;6.722;2022-08-26T09:18:17;8.10;;;4.43;;
64795;SDS011;51229;51.980;6.722;2022-08-26T09:20:58;11.73;;;4.18;;
64795;SDS011;51229;51.980;6.722;2022-08-26T09:23:35;14.98;;;4.10;;
64795;SDS011;51229;51.980;6.722;2022-08-26T09:26:19;10.70;;;4.05;;
64795;SDS011;51229;51.980;6.722;2022-08-26T09:28:55;8.20;;;3.83;;
64795;SDS011;51229;51.980;6.722;2022-08-26T09:31:24;8.20;;;3.47;;
64795;SDS011;51229;51.980;6.722;2022-08-26T09:34:13;10.18;;;3.85;;
64795;SDS011;51229;51.980;6.722;2022-08-26T09:36:42;9.55;;;3.72;;
64795;SDS011;51229;51.980;6.722;2022-08-26T09:39:29;9.77;;;3.95;;
64795;SDS011;51229;51.980;6.722;2022-08-26T09:47:36;8.73;;;3.90;;
64795;SDS011;51229;51.980;6.722;2022-08-26T09:50:27;7.63;;;3.47;;
64795;SDS011;51229;51.980;6.722;2022-08-26T09:55:47;12.80;;;4.47;;
64795;SDS011;51229;51.980;6.722;2022-08-26T09:58:31;14.45;;;4.38;;
64795;SDS011;51229;51.980;6.722;2022-08-26T10:00:59;9.93;;;3.60;;
64795;SDS011;51229;51.980;6.722;2022-08-26T10:03:30;7.85;;;3.17;;
64795;SDS011;51229;51.980;6.722;2022-08-26T10:08:27;6.68;;;3.08;;
64795;SDS011;51229;51.980;6.722;2022-08-26T10:10:57;9.93;;;3.58;;
64795;SDS011;51229;51.980;6.722;2022-08-26T10:13:36;9.02;;;3.40;;
64795;SDS011;51229;51.980;6.722;2022-08-26T10:19:03;6.82;;;2.67;;
64795;SDS011;51229;51.980;6.722;2022-08-26T10:21:53;7.03;;;2.92;;
64795;SDS011;51229;51.980;6.722;2022-08-26T10:24:56;10.50;;;3.30;;
64795;SDS011;51229;51.980;6.722;2022-08-26T10:30:29;8.37;;;3.50;;
64795;SDS011;51229;51.980;6.722;2022-08-26T10:33:02;7.63;;;3.47;;
64795;SDS011;51229;51.980;6.722;2022-08-26T10:35:31;8.32;;;3.08;;
64795;SDS011;51229;51.980;6.722;2022-08-26T10:38:01;10.70;;;3.30;;
64795;SDS011;51229;51.980;6.722;2022-08-26T10:40:41;11.40;;;3.63;;
64795;SDS011;51229;51.980;6.722;2022-08-26T10:43:29;8.13;;;3.25;;
64795;SDS011;51229;51.980;6.722;2022-08-26T10:46:06;7.40;;;3.38;;
64795;SDS011;51229;51.980;6.722;2022-08-26T10:48:50;7.57;;;2.97;;
64795;SDS011;51229;51.980;6.722;2022-08-26T10:51:30;8.93;;;3.10;;
64795;SDS011;51229;51.980;6.722;2022-08-26T10:54:24;9.38;;;3.65;;
64795;SDS011;51229;51.980;6.722;2022-08-26T11:02:21;6.50;;;2.95;;
64795;SDS011;51229;51.980;6.722;2022-08-26T11:05:03;8.43;;;3.10;;
64795;SDS011;51229;51.980;6.722;2022-08-26T11:12:46;10.38;;;3.58;;
64795;SDS011;51229;51.980;6.722;2022-08-26T11:18:06;6.40;;;3.70;;
64795;SDS011;51229;51.980;6.722;2022-08-26T11:20:40;9.80;;;3.92;;
64795;SDS011;51229;51.980;6.722;2022-08-26T11:28:39;8.57;;;3.30;;
64795;SDS011;51229;51.980;6.722;2022-08-26T11:33:53;7.93;;;3.72;;
64795;SDS011;51229;51.980;6.722;2022-08-26T11:42:00;4.22;;;2.95;;
64795;SDS011;51229;51.980;6.722;2022-08-26T11:44:39;7.03;;;3.67;;
64795;SDS011;51229;51.980;6.722;2022-08-26T11:47:07;6.15;;;3.50;;
64795;SDS011;51229;51.980;6.722;2022-08-26T11:49:35;5.63;;;3.30;;
64795;SDS011;51229;51.980;6.722;2022-08-26T11:54:36;6.15;;;3.80;;
64795;SDS011;51229;51.980;6.722;2022-08-26T11:57:03;6.55;;;3.30;;
64795;SDS011;51229;51.980;6.722;2022-08-26T11:59:32;7.57;;;3.53;;
64795;SDS011;51229;51.980;6.722;2022-08-26T12:02:02;5.80;;;3.03;;
64795;SDS011;51229;51.980;6.722;2022-08-26T12:04:36;7.90;;;2.90;;
64795;SDS011;51229;51.980;6.722;2022-08-26T12:07:03;6.63;;;2.47;;
64795;SDS011;51229;51.980;6.722;2022-08-26T12:09:33;7.60;;;2.55;;
64795;SDS011;51229;51.980;6.722;2022-08-26T12:12:10;8.23;;;2.42;;
64795;SDS011;51229;51.980;6.722;2022-08-26T12:14:38;8.45;;;2.83;;
64795;SDS011;51229;51.980;6.722;2022-08-26T12:17:46;9.50;;;2.88;;
64795;SDS011;51229;51.980;6.722;2022-08-26T12:19:53;7.07;;;2.47;;
64795;SDS011;51229;51.980;6.722;2022-08-26T12:22:25;11.20;;;2.70;;
64795;SDS011;51229;51.980;6.722;2022-08-26T12:24:59;5.38;;;2.40;;
64795;SDS011;51229;51.980;6.722;2022-08-26T12:30:09;8.60;;;2.70;;
64795;SDS011;51229;51.980;6.722;2022-08-26T12:32:36;8.90;;;3.03;;
64795;SDS011;51229;51.980;6.722;2022-08-26T12:35:05;8.52;;;2.75;;
64795;SDS011;51229;51.980;6.722;2022-08-26T12:37:33;7.28;;;3.22;;
64795;SDS011;51229;51.980;6.722;2022-08-26T12:42:57;7.53;;;3.13;;
64795;SDS011;51229;51.980;6.722;2022-08-26T12:45:27;7.35;;;2.70;;
64795;SDS011;51229;51.980;6.722;2022-08-26T12:47:57;6.50;;;3.15;;
64795;SDS011;51229;51.980;6.722;2022-08-26T12:50:27;9.02;;;2.88;;
64795;SDS011;51229;51.980;6.722;2022-08-26T12:52:57;6.28;;;2.45;;
64795;SDS011;51229;51.980;6.722;2022-08-26T13:00:50;7.43;;;2.50;;
64795;SDS011;51229;51.980;6.722;2022-08-26T13:06:15;6.35;;;2.92;;
64795;SDS011;51229;51.980;6.722;2022-08-26T13:09:28;7.18;;;2.60;;
64795;SDS011;51229;51.980;6.722;2022-08-26T13:14:08;9.82;;;2.83;;
64795;SDS011;51229;51.980;6.722;2022-08-26T13:16:36;8.70;;;3.58;;
64795;SDS011;51229;51.980;6.722;2022-08-26T13:19:04;6.63;;;3.03;;
64795;SDS011;51229;51.980;6.722;2022-08-26T13:21:45;9.30;;;2.80;;
64795;SDS011;51229;51.980;6.722;2022-08-26T13:24:16;7.88;;;3.00;;
64795;SDS011;51229;51.980;6.722;2022-08-26T13:26:47;6.13;;;2.63;;
64795;SDS011;51229;51.980;6.722;2022-08-26T13:29:13;8.07;;;2.45;;
64795;SDS011;51229;51.980;6.722;2022-08-26T13:31:40;7.35;;;2.80;;
64795;SDS011;51229;51.980;6.722;2022-08-26T13:34:08;7.70;;;3.25;;
64795;SDS011;51229;51.980;6.722;2022-08-26T13:36:36;8.45;;;2.78;;
64795;SDS011;51229;51.980;6.722;2022-08-26T13:39:03;4.68;;;2.50;;
64795;SDS011;51229;51.980;6.722;2022-08-26T13:41:29;8.27;;;2.42;;
64795;SDS011;51229;51.980;6.722;2022-08-26T13:43:56;7.05;;;2.83;;
64795;SDS011;51229;51.980;6.722;2022-08-26T13:46:23;5.45;;;2.58;;
64795;SDS011;51229;51.980;6.722;2022-08-26T13:48:49;6.97;;;2.65;;
64795;SDS011;51229;51.980;6.722;2022-08-26T13:51:15;5.47;;;2.25;;
64795;SDS011;51229;51.980;6.722;2022-08-26T13:53:42;6.35;;;2.22;;
64795;SDS011;51229;51.980;6.722;2022-08-26T13:56:08;5.93;;;2.47;;
64795;SDS011;51229;51.980;6.722;2022-08-26T13:58:34;5.15;;;2.30;;
64795;SDS011;51229;51.980;6.722;2022-08-26T14:00:59;5.05;;;1.90;;
64795;SDS011;51229;51.980;6.722;2022-08-26T14:03:26;3.97;;;2.42;;
64795;SDS011;51229;51.980;6.722;2022-08-26T14:05:52;7.00;;;2.38;;
64795;SDS011;51229;51.980;6.722;2022-08-26T14:08:18;5.97;;;2.45;;
64795;SDS011;51229;51.980;6.722;2022-08-26T14:10:44;7.13;;;2.40;;
64795;SDS011;51229;51.980;6.722;2022-08-26T14:13:10;6.38;;;2.40;;
64795;SDS011;51229;51.980;6.722;2022-08-26T14:15:35;7.68;;;2.17;;
64795;SDS011;51229;51.980;6.722;2022-08-26T14:18:02;6.25;;;2.28;;
64795;SDS011;51229;51.980;6.722;2022-08-26T14:20:31;5.63;;;2.20;;
64795;SDS011;51229;51.980;6.722;2022-08-26T14:22:58;5.38;;;2.13;;
64795;SDS011;51229;51.980;6.722;2022-08-26T14:25:24;5.85;;;2.30;;
64795;SDS011;51229;51.980;6.722;2022-08-26T14:27:50;4.60;;;2.20;;
64795;SDS011;51229;51.980;6.722;2022-08-26T14:30:17;6.05;;;2.38;;
64795;SDS011;51229;51.980;6.722;2022-08-26T14:32:48;5.65;;;2.50;;
64795;SDS011;51229;51.980;6.722;2022-08-26T14:37:47;5.82;;;2.28;;
64795;SDS011;51229;51.980;6.722;2022-08-26T14:40:13;4.82;;;2.47;;
64795;SDS011;51229;51.980;6.722;2022-08-26T14:42:42;6.63;;;2.83;;
64795;SDS011;51229;51.980;6.722;2022-08-26T14:45:11;8.95;;;2.65;;
64795;SDS011;51229;51.980;6.722;2022-08-26T14:47:40;4.88;;;2.10;;
64795;SDS011;51229;51.980;6.722;2022-08-26T14:50:05;6.55;;;2.50;;
64795;SDS011;51229;51.980;6.722;2022-08-26T14:52:31;8.05;;;2.40;;
64795;SDS011;51229;51.980;6.722;2022-08-26T14:55:17;5.68;;;2.30;;
64795;SDS011;51229;51.980;6.722;2022-08-26T14:57:43;5.93;;;2.17;;
64795;SDS011;51229;51.980;6.722;2022-08-26T15:00:08;6.18;;;1.90;;
64795;SDS011;51229;51.980;6.722;2022-08-26T15:02:34;5.22;;;2.08;;
64795;SDS011;51229;51.980;6.722;2022-08-26T15:05:02;5.47;;;2.17;;
64795;SDS011;51229;51.980;6.722;2022-08-26T15:07:29;5.55;;;1.90;;
64795;SDS011;51229;51.980;6.722;2022-08-26T15:09:55;3.53;;;1.90;;
64795;SDS011;51229;51.980;6.722;2022-08-26T15:12:20;6.65;;;2.03;;
64795;SDS011;51229;51.980;6.722;2022-08-26T15:14:46;4.38;;;2.00;;
64795;SDS011;51229;51.980;6.722;2022-08-26T15:17:12;6.05;;;2.08;;
64795;SDS011;51229;51.980;6.722;2022-08-26T15:19:37;6.97;;;2.00;;
64795;SDS011;51229;51.980;6.722;2022-08-26T15:22:03;6.38;;;2.13;;
64795;SDS011;51229;51.980;6.722;2022-08-26T15:24:29;5.57;;;1.70;;
64795;SDS011;51229;51.980;6.722;2022-08-26T15:26:55;5.40;;;1.80;;
64795;SDS011;51229;51.980;6.722;2022-08-26T15:29:21;5.63;;;1.92;;
64795;SDS011;51229;51.980;6.722;2022-08-26T15:31:48;5.22;;;2.10;;
64795;SDS011;51229;51.980;6.722;2022-08-26T15:34:14;4.95;;;2.40;;
64795;SDS011;51229;51.980;6.722;2022-08-26T15:36:40;4.90;;;1.73;;
64795;SDS011;51229;51.980;6.722;2022-08-26T15:39:08;6.20;;;2.03;;
64795;SDS011;51229;51.980;6.722;2022-08-26T15:41:35;5.32;;;2.00;;
64795;SDS011;51229;51.980;6.722;2022-08-26T15:44:02;7.28;;;2.20;;
64795;SDS011;51229;51.980;6.722;2022-08-26T15:46:30;7.70;;;1.98;;
64795;SDS011;51229;51.980;6.722;2022-08-26T15:48:55;6.55;;;1.73;;
64795;SDS011;51229;51.980;6.722;2022-08-26T15:53:58;7.22;;;1.80;;
64795;SDS011;51229;51.980;6.722;2022-08-26T15:56:26;5.70;;;1.80;;
64795;SDS011;51229;51.980;6.722;2022-08-26T15:58:53;4.97;;;1.95;;
64795;SDS011;51229;51.980;6.722;2022-08-26T16:01:19;7.70;;;2.00;;
64795;SDS011;51229;51.980;6.722;2022-08-26T16:03:48;4.80;;;1.88;;